createdAt,value
2019-04-22T00:00:32.803Z,13.70
2019-04-22T00:03:01.554Z,13.80
2019-04-22T00:05:42.900Z,13.70
2019-04-22T00:08:16.789Z,13.70
2019-04-22T00:10:50.254Z,13.70
2019-04-22T00:13:19.985Z,13.60
2019-04-22T00:15:36.739Z,13.50
2019-04-22T00:18:13.406Z,13.50
2019-04-22T00:20:42.291Z,13.60
2019-04-22T00:23:04.111Z,13.70
2019-04-22T00:25:34.840Z,13.70
2019-04-22T00:28:08.524Z,13.70
2019-04-22T00:30:25.549Z,13.60
2019-04-22T00:33:03.206Z,13.60
2019-04-22T00:35:29.310Z,13.70
2019-04-22T00:38:03.486Z,13.80
2019-04-22T00:40:30.183Z,13.80
2019-04-22T00:42:56.560Z,14.00
2019-04-22T00:45:31.064Z,13.90
2019-04-22T00:47:46.169Z,13.80
2019-04-22T00:50:18.875Z,13.80
2019-04-22T00:52:49.411Z,14.00
2019-04-22T00:57:42.490Z,14.00
2019-04-22T01:00:11.985Z,14.00
2019-04-22T01:02:41.519Z,13.90
2019-04-22T01:05:09.320Z,13.80
2019-04-22T01:07:30.819Z,13.70
2019-04-22T01:10:09.228Z,13.60
2019-04-22T01:12:34.336Z,13.80
2019-04-22T01:15:01.025Z,14.00
2019-04-22T01:17:34.362Z,14.00
2019-04-22T01:20:12.503Z,14.00
2019-04-22T01:22:22.393Z,14.00
2019-04-22T01:24:50.109Z,13.80
2019-04-22T01:27:11.498Z,13.70
2019-04-22T01:29:39.850Z,13.70
2019-04-22T01:31:54.478Z,13.70
2019-04-22T01:34:36.185Z,13.80
2019-04-22T01:37:11.732Z,13.70
2019-04-22T01:39:43.705Z,13.60
2019-04-22T01:42:28.616Z,13.50
2019-04-22T01:44:38.431Z,13.50
2019-04-22T01:49:33.629Z,13.50
2019-04-22T01:52:15.906Z,13.50
2019-04-22T01:54:35.773Z,13.60
2019-04-22T01:57:02.141Z,13.60
2019-04-22T01:59:19.839Z,13.60
2019-04-22T02:01:55.102Z,13.60
2019-04-22T02:04:26.890Z,13.60
2019-04-22T02:09:24.099Z,13.50
2019-04-22T02:14:19.615Z,13.60
2019-04-22T02:16:49.815Z,13.70
2019-04-22T02:19:18.447Z,13.70
2019-04-22T02:21:35.714Z,13.60
2019-04-22T02:24:15.944Z,13.60
2019-04-22T02:26:40.260Z,13.60
2019-04-22T02:29:03.455Z,13.60
2019-04-22T02:36:41.411Z,13.50
2019-04-22T02:49:04.094Z,13.60
2019-04-22T02:56:27.298Z,13.50
2019-04-22T02:58:58.382Z,13.50
2019-04-22T03:01:24.807Z,13.40
2019-04-22T03:06:24.115Z,13.40
2019-04-22T03:08:39.697Z,13.30
2019-04-22T03:11:12.428Z,13.30
2019-04-22T03:13:47.181Z,13.30
2019-04-22T03:16:07.919Z,13.20
2019-04-22T03:18:38.464Z,13.20
2019-04-22T03:21:07.895Z,13.10
2019-04-22T03:23:36.517Z,13.20
2019-04-22T03:28:32.795Z,13.20
2019-04-22T03:33:36.155Z,13.20
2019-04-22T03:36:02.602Z,13.30
2019-04-22T03:38:25.462Z,13.20
2019-04-22T03:43:35.131Z,13.20
2019-04-22T03:45:32.209Z,13.30
2019-04-22T03:48:07.779Z,13.40
2019-04-22T03:50:42.494Z,13.40
2019-04-22T03:53:09.854Z,13.30
2019-04-22T03:57:57.340Z,13.20
2019-04-22T04:15:28.447Z,13.10
2019-04-22T04:17:51.563Z,13.20
2019-04-22T04:25:27.299Z,13.00
2019-04-22T04:30:18.897Z,13.00
2019-04-22T04:35:35.050Z,12.90
2019-04-22T04:37:50.131Z,12.80
2019-04-22T04:40:18.347Z,12.80
2019-04-22T04:42:42.336Z,12.80
2019-04-22T04:47:43.952Z,12.80
2019-04-22T04:55:01.643Z,12.80
2019-04-22T04:57:37.205Z,12.80
2019-04-22T05:00:32.384Z,12.80
2019-04-22T05:02:19.911Z,12.80
2019-04-22T05:04:59.545Z,12.80
2019-04-22T05:07:18.687Z,12.80
2019-04-22T05:09:36.004Z,12.80
2019-04-22T05:12:24.644Z,12.80
2019-04-22T05:14:32.292Z,12.80
2019-04-22T05:17:14.311Z,12.80
2019-04-22T05:21:58.227Z,12.80
2019-04-22T05:27:02.099Z,12.80
2019-04-22T05:29:34.680Z,12.80
2019-04-22T05:31:52.204Z,12.70
2019-04-22T05:34:21.480Z,12.80
2019-04-22T05:36:48.453Z,12.90
2019-04-22T05:39:11.127Z,12.80
2019-04-22T05:41:44.558Z,12.80
2019-04-22T05:44:08.408Z,12.80
2019-04-22T05:46:34.796Z,12.80
2019-04-22T05:49:07.089Z,12.80
2019-04-22T05:51:37.065Z,12.80
2019-04-22T05:54:01.337Z,12.80
2019-04-22T05:56:34.215Z,12.80
2019-04-22T05:58:58.851Z,12.80
2019-04-22T06:03:59.207Z,12.90
2019-04-22T06:06:17.978Z,13.00
2019-04-22T06:08:51.037Z,13.00
2019-04-22T06:11:22.951Z,13.20
2019-04-22T06:13:45.038Z,13.30
2019-04-22T06:16:12.974Z,13.30
2019-04-22T06:18:42.010Z,13.40
2019-04-22T06:21:11.527Z,13.50
2019-04-22T06:23:44.068Z,13.60
2019-04-22T06:26:16.145Z,13.70
2019-04-22T06:28:40.672Z,13.70
2019-04-22T06:31:06.916Z,13.80
2019-04-22T06:33:34.496Z,13.80
2019-04-22T06:40:58.403Z,14.10
2019-04-22T06:43:23.597Z,14.20
2019-04-22T06:45:43.596Z,14.30
2019-04-22T06:48:19.160Z,14.30
2019-04-22T06:50:51.020Z,14.60
2019-04-22T06:53:29.880Z,14.60
2019-04-22T06:55:41.321Z,14.70
2019-04-22T06:58:10.879Z,14.90
2019-04-22T07:00:36.703Z,15.00
2019-04-22T07:05:43.741Z,15.10
2019-04-22T07:08:04.360Z,15.20
2019-04-22T07:12:58.404Z,15.40
2019-04-22T07:15:44.119Z,15.60
2019-04-22T07:17:58.203Z,15.60
2019-04-22T07:20:25.593Z,15.70
2019-04-22T07:22:51.492Z,15.80
2019-04-22T07:25:17.780Z,15.90
2019-04-22T07:27:46.069Z,16.00
2019-04-22T07:30:21.912Z,16.10
2019-04-22T07:33:04.517Z,16.10
2019-04-22T07:35:19.396Z,16.10
2019-04-22T07:40:02.211Z,16.30
2019-04-22T07:42:36.826Z,16.40
2019-04-22T07:45:08.613Z,16.60
2019-04-22T07:47:35.904Z,16.60
2019-04-22T07:49:58.975Z,16.80
2019-04-22T07:52:31.891Z,17.00
2019-04-22T07:54:57.930Z,17.20
2019-04-22T07:57:27.760Z,17.40
2019-04-22T07:59:58.070Z,17.50
2019-04-22T08:02:23.629Z,17.80
2019-04-22T08:04:57.960Z,17.90
2019-04-22T08:07:17.762Z,17.90
2019-04-22T08:09:53.912Z,17.90
2019-04-22T08:12:02.640Z,17.90
2019-04-22T08:14:42.281Z,17.80
2019-04-22T08:17:33.009Z,17.80
2019-04-22T08:19:37.324Z,18.00
2019-04-22T08:22:05.967Z,18.20
2019-04-22T08:24:35.612Z,18.40
2019-04-22T08:27:02.665Z,18.50
2019-04-22T08:31:54.815Z,18.80
2019-04-22T08:34:38.732Z,19.00
2019-04-22T08:37:12.222Z,19.20
2019-04-22T08:39:18.864Z,19.30
2019-04-22T08:41:39.928Z,19.40
2019-04-22T08:44:29.342Z,19.60
2019-04-22T08:49:10.239Z,20.00
2019-04-22T08:51:40.228Z,20.00
2019-04-22T08:56:43.652Z,20.20
2019-04-22T08:59:09.467Z,20.30
2019-04-22T09:01:44.392Z,20.30
2019-04-22T09:04:02.195Z,20.30
2019-04-22T09:06:47.980Z,20.40
2019-04-22T09:09:02.037Z,20.40
2019-04-22T09:11:26.932Z,20.50
2019-04-22T09:13:57.166Z,20.60
2019-04-22T09:16:27.796Z,20.60
2019-04-22T09:18:48.167Z,20.70
2019-04-22T09:21:31.619Z,20.80
2019-04-22T09:26:18.453Z,21.00
2019-04-22T09:28:44.563Z,21.10
2019-04-22T09:31:11.640Z,21.10
2019-04-22T09:33:36.872Z,21.20
2019-04-22T09:38:37.512Z,21.30
2019-04-22T09:41:00.005Z,21.30
2019-04-22T09:43:37.059Z,21.30
2019-04-22T09:45:57.505Z,21.40
2019-04-22T09:48:30.393Z,21.60
2019-04-22T09:50:52.493Z,21.90
2019-04-22T09:53:22.455Z,21.90
2019-04-22T09:55:50.006Z,22.10
2019-04-22T09:58:16.303Z,22.30
2019-04-22T10:00:52.844Z,22.30
2019-04-22T10:03:36.787Z,22.50
